Time;durP1;ratioP1;P1;durP2;ratioP2;P2;SDS_P1;SDS_P2;PMS_P1;PMS_P2;Temp;Humidity;BMP_temperature;BMP_pressure;BME280_temperature;BME280_humidity;BME280_pressure;Samples;Min_cycle;Max_cycle;Signal;HPM_P1;HPM_P2
2022/01/23 00:02:05;;;;;;;8.90;6.90;;;;;;;0.82;46.20;101909.16;5091592;28;20409;-70
2022/01/23 00:04:32;;;;;;;8.27;6.45;;;;;;;0.77;46.34;101908.41;5079966;28;20896;-70
2022/01/23 00:07:03;;;;;;;10.15;7.15;;;;;;;0.98;46.20;101907.06;5072078;28;20868;-70
2022/01/23 00:09:30;;;;;;;8.48;6.75;;;;;;;0.81;46.20;101904.81;5071868;28;20977;-70
2022/01/23 00:11:57;;;;;;;9.40;7.20;;;;;;;0.83;46.29;101904.81;5072292;28;20411;-70
2022/01/23 00:17:20;;;;;;;10.50;7.97;;;;;;;0.97;45.93;101914.03;5076887;28;20408;-69
2022/01/23 00:19:49;;;;;;;9.63;7.57;;;;;;;0.92;46.09;101931.53;5075105;28;20502;-69
2022/01/23 00:22:18;;;;;;;9.53;7.50;;;;;;;0.82;46.00;101929.19;5077661;28;20422;-70
2022/01/23 00:30:25;;;;;;;9.30;7.15;;;;;;;0.75;46.43;101933.66;5073119;28;20406;-70
2022/01/23 00:32:54;;;;;;;8.93;7.10;;;;;;;0.79;46.49;101935.31;5091109;28;20952;-70
2022/01/23 00:35:21;;;;;;;9.05;7.53;;;;;;;0.94;46.24;101934.97;5071783;28;20448;-70
2022/01/23 00:37:49;;;;;;;11.03;7.43;;;;;;;0.93;46.24;101938.50;5071196;28;20948;-70
2022/01/23 00:40:17;;;;;;;9.27;7.35;;;;;;;0.86;46.38;101936.91;5071349;28;20498;-70
2022/01/23 00:42:44;;;;;;;9.17;7.40;;;;;;;0.84;46.26;101938.69;5091115;28;20409;-70
2022/01/23 00:47:58;;;;;;;9.70;7.28;;;;;;;0.84;46.09;101936.09;5080035;28;20403;-69
2022/01/23 00:50:25;;;;;;;10.40;8.00;;;;;;;0.97;45.69;101940.13;5071222;28;20415;-70
2022/01/23 00:52:52;;;;;;;8.90;7.10;;;;;;;0.94;45.99;101934.97;5071251;28;20415;-70
2022/01/23 00:55:19;;;;;;;9.00;6.80;;;;;;;0.82;45.95;101944.84;5071224;28;20490;-70
2022/01/23 00:57:46;;;;;;;9.93;6.85;;;;;;;0.96;45.78;101948.00;5071095;28;21506;-71
2022/01/23 01:00:14;;;;;;;8.80;7.03;;;;;;;1.02;45.74;101942.63;5070950;28;20411;-70
2022/01/23 01:02:41;;;;;;;8.50;6.93;;;;;;;0.92;45.80;101952.41;5070579;28;20912;-70
2022/01/23 01:05:11;;;;;;;9.18;7.20;;;;;;;1.01;45.52;101951.34;5070856;28;20426;-70
2022/01/23 01:07:39;;;;;;;8.63;7.05;;;;;;;1.09;45.60;101952.03;5072283;28;20486;-70
2022/01/23 01:10:12;;;;;;;9.95;7.40;;;;;;;1.10;45.10;101948.53;5071064;28;20430;-70
2022/01/23 01:12:42;;;;;;;10.60;7.83;;;;;;;1.10;45.35;101945.91;5070717;28;20485;-70
2022/01/23 01:15:31;;;;;;;9.33;7.50;;;;;;;1.11;45.28;101954.59;5070705;28;20407;-70
2022/01/23 01:31:46;;;;;;;11.15;7.95;;;;;;;1.11;44.81;101950.22;5069990;28;20434;-70
2022/01/23 01:34:18;;;;;;;8.82;7.32;;;;;;;1.04;44.97;101951.28;5070306;28;20425;-70
2022/01/23 01:36:48;;;;;;;8.88;7.15;;;;;;;1.05;44.71;101942.53;5070279;28;20411;-70
2022/01/23 01:39:17;;;;;;;10.88;7.70;;;;;;;0.99;45.11;101940.09;5070106;28;20873;-70
2022/01/23 01:41:45;;;;;;;11.60;8.13;;;;;;;1.01;44.75;101946.13;5070554;28;20430;-70
2022/01/23 01:44:12;;;;;;;11.27;8.77;;;;;;;0.97;44.98;101939.25;5070126;28;20490;-70
2022/01/23 01:46:40;;;;;;;12.65;9.35;;;;;;;0.90;44.97;101946.38;5068081;28;20904;-70
2022/01/23 01:49:07;;;;;;;10.25;8.10;;;;;;;0.88;45.15;101950.78;5070329;28;20513;-70
2022/01/23 01:51:34;;;;;;;13.60;9.67;;;;;;;0.97;44.95;101950.56;5069954;28;20589;-70
2022/01/23 01:54:09;;;;;;;12.77;9.30;;;;;;;0.92;45.02;101941.97;5069882;28;20411;-70
2022/01/23 01:56:46;;;;;;;10.60;8.80;;;;;;;0.89;45.52;101941.19;5069914;28;20421;-70
2022/01/23 02:10:12;;;;;;;11.38;9.50;;;;;;;0.87;45.29;101946.44;5069715;28;20460;-70
2022/01/23 02:18:23;;;;;;;11.75;9.27;;;;;;;0.96;45.04;101946.25;5038355;28;20411;-69
2022/01/23 02:51:28;;;;;;;10.75;8.07;;;;;;;0.80;45.58;101966.59;5069359;28;20408;-69
2022/01/23 02:54:19;;;;;;;11.10;8.57;;;;;;;0.83;45.61;101957.81;5069183;28;20415;-70
2022/01/23 02:56:49;;;;;;;12.05;9.45;;;;;;;0.82;45.69;101969.16;5068500;28;20411;-69
2022/01/23 02:59:23;;;;;;;12.93;9.63;;;;;;;0.85;45.47;101956.03;5069598;28;20506;-70
2022/01/23 03:02:02;;;;;;;15.13;10.73;;;;;;;0.86;45.42;101960.38;5069213;28;20422;-69
2022/01/23 03:04:32;;;;;;;12.70;10.18;;;;;;;0.76;45.80;101962.34;5069165;28;20430;-71
2022/01/23 03:07:13;;;;;;;13.37;10.27;;;;;;;0.67;45.90;101969.50;5069532;28;20407;-70
2022/01/23 03:09:56;;;;;;;11.98;9.82;;;;;;;0.61;46.19;101970.50;5069049;28;20554;-70
2022/01/23 03:15:21;;;;;;;13.63;10.45;;;;;;;0.58;46.44;101973.16;5012401;28;20404;-70
2022/01/23 03:29:18;;;;;;;10.48;8.23;;;;;;;0.78;45.88;102001.44;5068388;28;20430;-70
2022/01/23 03:31:58;;;;;;;10.80;8.25;;;;;;;0.55;46.27;102010.59;5068029;28;20407;-70
2022/01/23 03:34:27;;;;;;;10.27;8.48;;;;;;;0.79;46.05;102009.25;5069068;28;20418;-70
2022/01/23 03:36:56;;;;;;;385.83;230.52;;;;;;;0.88;45.41;102002.94;5068901;28;20452;-70
2022/01/23 03:39:23;;;;;;;27.17;19.00;;;;;;;0.84;45.50;101995.22;5068823;28;20411;-70
2022/01/23 03:41:51;;;;;;;20.90;18.98;;;;;;;0.92;45.30;101998.53;5069141;28;20406;-70
2022/01/23 03:44:18;;;;;;;21.93;20.07;;;;;;;0.86;45.15;101989.09;5069019;28;20407;-70
2022/01/23 03:47:01;;;;;;;17.35;15.80;;;;;;;1.02;45.09;101991.38;5068660;28;20411;-70
2022/01/23 03:49:31;;;;;;;12.23;10.63;;;;;;;0.95;44.65;101983.69;5066997;28;20434;-70
2022/01/23 03:51:59;;;;;;;15.50;13.93;;;;;;;1.01;44.54;101977.44;5068678;28;20417;-70
2022/01/23 03:54:27;;;;;;;14.82;13.27;;;;;;;1.06;44.49;101977.34;5053967;28;20417;-70
2022/01/23 03:56:56;;;;;;;10.75;9.18;;;;;;;0.93;44.44;101971.53;5072162;28;20419;-70
2022/01/23 03:59:23;;;;;;;10.85;9.30;;;;;;;0.93;44.75;101971.53;5072255;28;20403;-70
2022/01/23 04:01:50;;;;;;;11.40;10.15;;;;;;;1.03;44.14;101972.19;5072083;28;20497;-70
2022/01/23 04:04:35;;;;;;;11.95;10.85;;;;;;;1.10;44.02;101973.78;5054412;28;20421;-70
2022/01/23 04:07:02;;;;;;;11.02;9.20;;;;;;;1.14;44.09;101967.59;5071983;28;20774;-70
2022/01/23 04:09:29;;;;;;;11.38;10.20;;;;;;;0.93;44.56;101972.41;5072095;28;20422;-70
2022/01/23 04:11:59;;;;;;;12.73;11.43;;;;;;;0.88;44.63;101974.25;5072389;28;20900;-70
2022/01/23 04:14:27;;;;;;;13.73;12.45;;;;;;;0.98;44.49;101975.75;5072306;28;20452;-70
2022/01/23 04:19:59;;;;;;;1013.42;583.67;;;;;;;1.04;44.42;101982.59;5015011;28;20416;-70
2022/01/23 04:33:45;;;;;;;11.32;10.15;;;;;;;1.23;43.98;101982.16;5071664;28;20827;-70
2022/01/23 05:01:18;;;;;;;9.45;8.43;;;;;;;1.15;43.05;101970.16;5009203;28;20454;-70
2022/01/23 05:06:45;;;;;;;9.60;8.20;;;;;;;1.15;43.00;101977.13;5071193;28;20482;-70
2022/01/23 05:09:14;;;;;;;11.83;9.90;;;;;;;1.16;42.61;101984.94;5071270;28;20467;-69
2022/01/23 05:11:48;;;;;;;9.70;8.23;;;;;;;1.12;42.51;101985.91;5070758;28;20415;-69
2022/01/23 05:14:17;;;;;;;9.93;8.57;;;;;;;1.12;42.50;101987.66;5071004;28;20414;-69
2022/01/23 05:16:46;;;;;;;9.20;8.10;;;;;;;1.34;42.19;101995.84;5070939;28;20407;-69
2022/01/23 05:19:13;;;;;;;18.50;16.63;;;;;;;1.26;41.72;101992.53;5070322;28;20417;-69
2022/01/23 05:22:05;;;;;;;10.18;8.48;;;;;;;1.23;41.65;101990.84;5070921;28;20402;-70
2022/01/23 05:24:37;;;;;;;12.48;9.18;;;;;;;1.23;41.55;101996.06;5070139;28;20873;-69
2022/01/23 05:27:07;;;;;;;11.17;9.73;;;;;;;1.23;41.42;101987.41;5069611;28;20994;-69
2022/01/23 05:29:34;;;;;;;9.30;7.85;;;;;;;1.19;41.32;101992.66;5069838;28;20983;-70
2022/01/23 05:32:04;;;;;;;10.55;8.15;;;;;;;1.15;41.38;101984.97;5070583;28;20417;-69
2022/01/23 05:34:31;;;;;;;10.45;9.35;;;;;;;1.30;41.35;101984.59;5070257;28;20486;-69
2022/01/23 05:36:59;;;;;;;10.33;8.83;;;;;;;1.37;40.94;101982.69;5070921;28;20443;-69
2022/01/23 05:39:27;;;;;;;10.77;9.77;;;;;;;1.34;40.83;101973.19;5069776;28;20538;-69
2022/01/23 05:41:59;;;;;;;11.10;8.10;;;;;;;1.22;40.90;101977.84;5070179;28;20418;-68
2022/01/23 05:44:26;;;;;;;10.68;7.93;;;;;;;1.44;40.66;101975.56;5070174;28;20832;-70
2022/01/23 05:46:53;;;;;;;8.43;7.38;;;;;;;1.31;40.52;101986.31;5070442;28;20415;-70
2022/01/23 05:49:22;;;;;;;10.77;9.13;;;;;;;1.47;40.35;101978.13;5069763;28;20427;-70
2022/01/23 05:51:49;;;;;;;12.30;9.85;;;;;;;1.39;40.40;101981.75;5069948;28;20403;-69
2022/01/23 05:54:16;;;;;;;14.40;10.77;;;;;;;1.45;40.50;101985.13;5069899;28;20978;-69
2022/01/23 05:56:43;;;;;;;12.40;9.35;;;;;;;1.55;40.32;101994.47;5070181;28;20430;-70
2022/01/23 05:59:10;;;;;;;13.23;10.15;;;;;;;1.63;39.91;101989.91;5070127;28;20403;-70
2022/01/23 06:01:37;;;;;;;24.45;20.88;;;;;;;1.75;39.89;101986.97;5070174;28;20434;-69
2022/01/23 06:04:04;;;;;;;18.65;15.88;;;;;;;1.81;39.60;101996.41;5070146;28;20426;-70
2022/01/23 06:06:32;;;;;;;13.73;10.88;;;;;;;1.74;39.85;102000.06;5069793;28;20909;-70
2022/01/23 06:08:59;;;;;;;19.23;17.08;;;;;;;1.88;39.84;101999.72;5069752;28;20472;-70
2022/01/23 06:11:26;;;;;;;15.48;10.68;;;;;;;1.88;39.68;102000.56;5070048;28;20446;-70
2022/01/23 06:13:53;;;;;;;13.55;10.07;;;;;;;1.89;39.73;101993.59;5070214;28;20489;-69
2022/01/23 06:16:20;;;;;;;14.10;10.88;;;;;;;1.83;39.73;101991.16;5069573;28;20486;-69
2022/01/23 06:18:47;;;;;;;13.45;11.35;;;;;;;2.06;39.53;101995.78;5069631;28;21023;-70
2022/01/23 06:21:18;;;;;;;12.43;10.30;;;;;;;1.99;39.74;102006.38;5069610;28;20788;-70
2022/01/23 06:23:55;;;;;;;14.65;11.35;;;;;;;2.14;39.72;101994.66;5069845;28;20415;-70
2022/01/23 06:26:24;;;;;;;12.70;9.82;;;;;;;2.14;39.83;102002.50;5069498;28;20418;-70
2022/01/23 06:28:57;;;;;;;13.15;10.50;;;;;;;2.37;39.54;102004.50;5069464;28;20963;-70
2022/01/23 06:31:24;;;;;;;12.00;9.75;;;;;;;2.69;39.04;102015.78;5069723;28;20426;-71
2022/01/23 06:33:51;;;;;;;16.33;11.05;;;;;;;2.56;39.04;101999.59;5069495;28;20407;-70
2022/01/23 06:36:18;;;;;;;12.87;11.57;;;;;;;2.87;38.46;102003.06;5069416;28;20410;-69
2022/01/23 06:38:46;;;;;;;11.57;9.50;;;;;;;3.04;37.96;102015.66;5069427;28;20411;-70
2022/01/23 06:41:14;;;;;;;13.03;9.30;;;;;;;2.98;37.84;102014.06;5069097;28;20413;-70
2022/01/23 06:43:40;;;;;;;11.02;8.80;;;;;;;3.09;37.56;102011.13;5069542;28;20490;-70
2022/01/23 06:46:07;;;;;;;15.55;13.38;;;;;;;3.41;37.31;102010.97;5069275;28;20411;-70
2022/01/23 06:48:34;;;;;;;24.53;22.10;;;;;;;3.50;36.79;102011.59;5069594;28;20938;-70
2022/01/23 06:51:02;;;;;;;16.92;15.18;;;;;;;3.36;37.21;101999.78;5069223;28;21039;-70
2022/01/23 06:53:28;;;;;;;18.52;16.58;;;;;;;3.65;36.53;102004.97;5069927;28;20497;-70
2022/01/23 06:55:57;;;;;;;12.40;10.57;;;;;;;3.84;36.02;102013.09;5069185;28;20901;-70
2022/01/23 06:58:24;;;;;;;14.80;13.20;;;;;;;6.47;32.63;102015.94;5069170;28;20418;-70
2022/01/23 07:00:51;;;;;;;12.70;10.13;;;;;;;8.54;29.11;102011.09;5069621;28;20498;-69
2022/01/23 07:03:18;;;;;;;13.82;11.20;;;;;;;7.86;29.80;102002.31;5069275;28;20418;-69
2022/01/23 07:05:45;;;;;;;28.23;21.10;;;;;;;8.36;28.98;102015.53;5069275;28;20995;-70
2022/01/23 07:08:11;;;;;;;12.40;9.82;;;;;;;8.86;28.46;102010.28;5069109;28;20494;-70
2022/01/23 07:10:39;;;;;;;10.23;8.38;;;;;;;10.87;25.54;102008.16;5069217;28;20427;-70
2022/01/23 07:13:07;;;;;;;10.27;7.40;;;;;;;9.52;26.88;102010.06;5069018;28;21026;-70
2022/01/23 07:15:34;;;;;;;10.50;8.00;;;;;;;8.63;27.74;102021.16;5069337;28;20415;-70
2022/01/23 07:18:01;;;;;;;13.40;11.32;;;;;;;8.19;28.28;102011.16;5070330;28;20490;-70
2022/01/23 07:20:28;;;;;;;10.50;8.80;;;;;;;9.30;26.94;102017.53;5069159;28;20414;-70
2022/01/23 07:22:55;;;;;;;10.80;8.40;;;;;;;8.13;28.19;102026.44;5069251;28;20415;-70
2022/01/23 07:25:22;;;;;;;11.80;8.30;;;;;;;8.36;28.05;102026.09;5069206;28;20505;-70
2022/01/23 07:27:52;;;;;;;13.80;9.40;;;;;;;8.63;27.67;102023.81;5069873;28;20442;-70
2022/01/23 07:30:39;;;;;;;9.35;7.85;;;;;;;9.00;27.05;102019.19;5072603;28;20437;-70
2022/01/23 07:33:05;;;;;;;10.05;8.60;;;;;;;9.15;26.99;102024.53;5073069;28;20410;-70
2022/01/23 07:35:33;;;;;;;8.97;7.50;;;;;;;9.24;26.77;102018.72;5072632;28;20923;-70
2022/01/23 07:38:00;;;;;;;8.25;6.65;;;;;;;9.46;26.48;102014.88;5072876;28;20489;-70
2022/01/23 07:40:27;;;;;;;11.05;7.63;;;;;;;9.28;26.53;102017.59;5072458;28;20995;-70
2022/01/23 07:42:54;;;;;;;9.15;6.85;;;;;;;9.62;26.16;102013.03;5072386;28;20415;-70
2022/01/23 07:45:22;;;;;;;7.73;6.50;;;;;;;9.87;25.89;102019.53;5072060;28;20493;-69
2022/01/23 07:47:49;;;;;;;8.80;7.20;;;;;;;9.87;25.60;102019.53;5072378;28;20497;-70
2022/01/23 07:50:17;;;;;;;8.43;6.40;;;;;;;9.43;26.13;102021.19;5072117;28;20529;-70
2022/01/23 07:52:44;;;;;;;10.02;8.35;;;;;;;10.13;25.55;102018.84;5072033;28;21102;-70
2022/01/23 07:55:13;;;;;;;11.33;9.00;;;;;;;12.13;23.34;102022.00;5070727;28;20482;-70
2022/01/23 07:57:42;;;;;;;12.88;9.40;;;;;;;10.70;24.38;102019.84;5072413;28;20411;-70
2022/01/23 08:00:11;;;;;;;12.05;9.10;;;;;;;10.09;25.14;102014.66;5072295;28;20939;-70
2022/01/23 08:02:40;;;;;;;12.15;9.80;;;;;;;9.55;25.82;102012.56;5072659;28;20490;-70
2022/01/23 08:05:09;;;;;;;12.93;9.10;;;;;;;9.26;26.31;102008.06;5071919;28;20498;-70
2022/01/23 08:07:36;;;;;;;16.03;10.80;;;;;;;8.69;26.91;102003.28;5071963;28;20912;-70
2022/01/23 08:10:06;;;;;;;12.57;9.10;;;;;;;8.39;27.48;102002.19;5071811;28;20433;-70
2022/01/23 08:12:33;;;;;;;9.20;7.53;;;;;;;8.06;27.93;101996.03;5071478;28;20439;-70
2022/01/23 08:15:01;;;;;;;9.07;7.10;;;;;;;7.46;28.80;101994.63;5071954;28;20407;-70
2022/01/23 08:17:28;;;;;;;9.73;6.85;;;;;;;7.28;29.28;101995.50;5072039;28;20434;-69
2022/01/23 08:19:59;;;;;;;11.40;7.40;;;;;;;7.54;28.94;101995.09;5072348;28;20407;-71
2022/01/23 08:22:28;;;;;;;10.23;6.50;;;;;;;7.51;29.20;101994.41;5071845;28;20446;-71
2022/01/23 08:24:56;;;;;;;10.07;7.47;;;;;;;7.68;28.90;102004.94;5070051;28;21082;-68
2022/01/23 08:27:24;;;;;;;11.07;8.57;;;;;;;7.81;28.71;102016.59;5069463;28;20559;-73
2022/01/23 08:29:51;;;;;;;11.40;7.97;;;;;;;7.73;28.66;102010.00;5070824;28;20515;-74
2022/01/23 08:32:18;;;;;;;11.05;8.63;;;;;;;7.63;28.91;102013.09;5071172;28;20919;-72
2022/01/23 08:34:45;;;;;;;15.55;10.45;;;;;;;7.68;28.83;102014.66;5071627;28;20983;-73
2022/01/23 08:37:14;;;;;;;13.07;9.20;;;;;;;8.01;28.59;102020.03;5053858;28;20766;-72
2022/01/23 08:39:41;;;;;;;11.05;7.80;;;;;;;8.61;27.62;102006.34;5071115;28;20425;-72
2022/01/23 08:42:11;;;;;;;15.90;10.65;;;;;;;8.23;27.67;102017.97;5071201;28;20525;-72
2022/01/23 08:44:38;;;;;;;10.75;6.90;;;;;;;8.17;27.42;102022.69;5071525;28;20413;-73
2022/01/23 08:47:07;;;;;;;10.67;7.13;;;;;;;7.99;27.85;102019.25;5071474;28;20426;-73
2022/01/23 08:49:36;;;;;;;10.18;7.72;;;;;;;8.29;27.29;102021.22;5071255;28;20991;-74
2022/01/23 08:52:03;;;;;;;10.05;7.55;;;;;;;7.86;27.89;102012.88;5071590;28;20526;-74
2022/01/23 08:54:32;;;;;;;11.25;9.00;;;;;;;8.07;27.85;102009.16;5074264;28;20409;-74
2022/01/23 08:56:59;;;;;;;11.65;8.27;;;;;;;8.53;27.22;102001.47;5091361;28;20409;-73
2022/01/23 08:59:26;;;;;;;11.82;7.28;;;;;;;8.94;26.78;102008.94;5091369;28;20417;-73
2022/01/23 09:01:53;;;;;;;9.25;7.57;;;;;;;11.03;24.41;102003.63;5091522;28;20448;-72
2022/01/23 09:04:20;;;;;;;10.27;7.63;;;;;;;12.68;22.19;102005.81;5089822;28;20413;-74
2022/01/23 09:06:48;;;;;;;9.32;7.20;;;;;;;10.76;23.97;101998.25;5089166;28;20492;-72
2022/01/23 09:09:18;;;;;;;8.93;6.72;;;;;;;10.10;24.55;102005.78;5089573;28;20437;-74
2022/01/23 09:12:00;;;;;;;8.32;6.50;;;;;;;10.85;24.04;101997.69;5090850;28;20502;-73
2022/01/23 09:14:27;;;;;;;8.85;6.80;;;;;;;11.19;23.57;101998.13;5072781;28;20447;-71
2022/01/23 09:16:55;;;;;;;11.82;7.53;;;;;;;10.70;23.88;101982.72;5091176;28;20508;-72
2022/01/23 09:19:24;;;;;;;11.45;7.00;;;;;;;10.92;23.60;101991.03;5091158;28;20508;-71
2022/01/23 09:21:52;;;;;;;10.17;7.03;;;;;;;11.83;22.52;101985.91;5090748;28;20445;-72
2022/01/23 09:24:20;;;;;;;10.68;6.95;;;;;;;11.24;23.39;101993.41;5090683;28;20958;-71
2022/01/23 09:26:52;;;;;;;10.38;6.95;;;;;;;11.49;22.88;101983.81;5090746;28;20484;-71
2022/01/23 09:29:28;;;;;;;11.07;6.63;;;;;;;11.47;22.78;101975.97;5090819;28;20470;-70
2022/01/23 09:31:56;;;;;;;9.07;7.20;;;;;;;12.43;21.91;101973.00;5090816;28;20433;-71
2022/01/23 09:34:24;;;;;;;9.55;6.70;;;;;;;12.00;22.41;101965.34;5090831;28;20413;-71
2022/01/23 09:36:52;;;;;;;8.88;7.22;;;;;;;10.76;23.47;101979.69;5090180;28;20413;-67
2022/01/23 09:39:20;;;;;;;9.23;6.82;;;;;;;10.98;23.45;101987.97;5090797;28;20409;-67
2022/01/23 09:41:58;;;;;;;10.18;7.28;;;;;;;12.00;22.54;101991.91;5090685;28;20414;-67
2022/01/23 09:44:25;;;;;;;11.48;7.28;;;;;;;12.10;22.22;101977.03;5089498;28;20420;-68
2022/01/23 09:46:56;;;;;;;8.80;6.82;;;;;;;12.45;21.84;101987.03;5089956;28;20527;-68
2022/01/23 09:49:26;;;;;;;11.20;8.35;;;;;;;12.58;21.92;101990.50;5088608;28;20405;-67
2022/01/23 09:51:55;;;;;;;8.88;7.25;;;;;;;11.60;22.31;101989.28;5089479;28;20998;-67
2022/01/23 09:54:22;;;;;;;10.75;7.90;;;;;;;11.10;23.10;101986.34;5090484;28;20445;-68
2022/01/23 09:56:51;;;;;;;10.63;8.50;;;;;;;10.87;23.25;101985.19;5090354;28;20484;-68
2022/01/23 09:59:19;;;;;;;12.13;8.50;;;;;;;10.36;23.69;101992.78;5090000;28;20492;-68
2022/01/23 10:01:53;;;;;;;9.93;7.00;;;;;;;10.22;23.89;101986.50;5090621;28;20484;-67
2022/01/23 10:04:20;;;;;;;14.80;10.75;;;;;;;12.56;21.39;101978.28;5089994;28;20488;-68
2022/01/23 10:06:47;;;;;;;24.00;18.48;;;;;;;13.92;20.34;101987.81;5090357;28;20412;-68
2022/01/23 10:09:15;;;;;;;14.88;11.57;;;;;;;15.82;18.29;101993.84;5089716;28;20913;-68
2022/01/23 10:11:44;;;;;;;10.43;8.60;;;;;;;18.93;15.87;101978.91;5090315;28;20448;-68
2022/01/23 10:14:12;;;;;;;11.18;8.77;;;;;;;19.47;15.53;101975.44;5089889;28;20990;-68
2022/01/23 10:16:40;;;;;;;9.25;7.10;;;;;;;20.64;14.06;101979.53;5090148;28;20409;-68
2022/01/23 10:19:08;;;;;;;17.25;12.90;;;;;;;20.57;14.17;101969.41;5090191;28;20487;-68
2022/01/23 10:21:38;;;;;;;13.52;11.32;;;;;;;21.75;13.36;101958.47;5089281;28;20406;-68
2022/01/23 10:24:06;;;;;;;10.30;8.00;;;;;;;22.98;12.88;101963.44;5089916;28;20923;-68
2022/01/23 10:26:59;;;;;;;12.13;8.45;;;;;;;22.78;12.79;101951.41;5089707;28;20981;-68
2022/01/23 10:29:32;;;;;;;8.85;7.38;;;;;;;23.76;11.84;101949.81;5089354;28;20495;-68
2022/01/23 10:32:19;;;;;;;13.63;9.70;;;;;;;22.11;12.19;101951.84;5089567;28;20946;-68
2022/01/23 10:34:50;;;;;;;16.98;12.60;;;;;;;21.13;13.15;101937.41;5089871;28;20463;-68
2022/01/23 10:37:34;;;;;;;14.93;10.83;;;;;;;20.79;13.27;101970.69;5089489;28;20420;-67
2022/01/23 10:40:05;;;;;;;13.75;10.70;;;;;;;22.10;12.31;101958.25;5089464;28;20488;-69
2022/01/23 10:48:36;;;;;;;16.75;13.38;;;;;;;22.12;12.34;101946.28;5089471;28;20408;-68
2022/01/23 10:51:25;;;;;;;14.15;11.32;;;;;;;22.64;12.25;101947.59;5089225;28;20511;-68
2022/01/23 10:54:00;;;;;;;10.15;8.07;;;;;;;22.66;11.63;101944.72;5089649;28;20492;-68
2022/01/23 10:56:29;;;;;;;10.45;9.35;;;;;;;24.27;11.08;101950.00;5089350;28;21002;-68
2022/01/23 10:59:01;;;;;;;12.57;10.20;;;;;;;20.00;13.53;101942.22;5089661;28;20486;-68
2022/01/23 11:01:30;;;;;;;14.63;10.10;;;;;;;17.12;15.48;101932.56;5089538;28;20417;-68
2022/01/23 11:04:11;;;;;;;12.27;9.30;;;;;;;15.90;16.96;101937.09;5093173;28;20860;-68
2022/01/23 11:06:59;;;;;;;15.52;11.55;;;;;;;13.79;18.69;101929.31;5092445;28;20401;-68
2022/01/23 11:09:32;;;;;;;12.95;10.30;;;;;;;12.63;19.52;101934.34;5093317;28;20444;-73
2022/01/23 11:12:12;;;;;;;9.60;7.10;;;;;;;11.94;20.04;101949.84;5093650;28;20516;-73
2022/01/23 11:17:26;;;;;;;10.53;7.73;;;;;;;10.96;21.37;101928.03;5093336;28;20400;-72
2022/01/23 11:19:58;;;;;;;11.02;8.73;;;;;;;10.39;22.14;101935.16;5093237;28;20504;-76
2022/01/23 11:22:28;;;;;;;9.65;6.50;;;;;;;10.25;22.05;101929.00;5092022;28;20416;-77
2022/01/23 11:24:59;;;;;;;10.93;6.57;;;;;;;9.54;22.98;101923.53;5091899;28;20405;-75
2022/01/23 11:27:33;;;;;;;7.63;6.13;;;;;;;9.60;23.02;101933.75;5093365;28;20480;-78
2022/01/23 11:30:05;;;;;;;11.13;8.25;;;;;;;9.06;23.80;101937.81;5092886;28;20788;-77
2022/01/23 11:32:37;;;;;;;11.00;6.82;;;;;;;9.06;23.76;101936.00;5093078;28;20930;-77
2022/01/23 11:35:09;;;;;;;9.65;7.30;;;;;;;9.41;23.76;101938.44;5092882;28;21006;-78
2022/01/23 11:37:39;;;;;;;10.85;8.00;;;;;;;9.10;24.23;101939.34;5093428;28;20424;-77
2022/01/23 11:40:22;;;;;;;9.75;7.63;;;;;;;9.66;23.78;101937.00;5092959;28;20424;-76
2022/01/23 11:54:07;;;;;;;9.05;7.50;;;;;;;8.97;24.64;101918.88;5058503;28;20409;-77
2022/01/23 11:56:53;;;;;;;9.60;7.27;;;;;;;8.55;25.26;101925.63;5092887;28;20409;-78
2022/01/23 11:59:29;;;;;;;8.77;6.38;;;;;;;8.16;25.80;101921.53;5093318;28;20409;-78
2022/01/23 12:05:32;;;;;;;11.23;8.93;;;;;;;7.56;27.03;101931.72;5087125;28;20446;-77
2022/01/23 12:08:37;;;;;;;10.33;7.80;;;;;;;7.50;27.00;101932.03;5091917;28;20437;-78
2022/01/23 12:17:42;;;;;;;10.70;7.45;;;;;;;6.42;29.04;101939.81;5092354;28;20837;-78
2022/01/23 12:20:10;;;;;;;9.35;7.57;;;;;;;6.31;29.35;101939.47;5090915;28;20783;-77
2022/01/23 12:22:45;;;;;;;9.30;7.38;;;;;;;6.09;29.46;101940.44;5092380;28;20817;-78
2022/01/23 12:25:30;;;;;;;11.00;8.82;;;;;;;6.28;29.58;101944.88;5092279;28;20929;-77
2022/01/23 12:28:28;;;;;;;9.52;7.65;;;;;;;6.27;29.83;101936.13;5092176;28;20906;-78
2022/01/23 12:30:57;;;;;;;11.10;7.93;;;;;;;5.95;30.13;101935.78;5020265;28;20964;-77
2022/01/23 12:33:46;;;;;;;12.93;9.98;;;;;;;6.26;29.89;101942.28;5091129;28;20978;-78
2022/01/23 12:36:31;;;;;;;16.70;12.43;;;;;;;6.09;30.13;101948.31;5092326;28;20455;-77
2022/01/23 12:39:19;;;;;;;17.92;12.27;;;;;;;5.94;30.43;101951.56;5092208;28;20409;-79
2022/01/23 12:41:59;;;;;;;19.23;12.88;;;;;;;5.95;30.60;101948.06;5091947;28;20925;-77
2022/01/23 12:44:35;;;;;;;16.65;11.20;;;;;;;5.60;31.06;101950.41;5092040;28;20484;-77
2022/01/23 12:47:04;;;;;;;13.00;9.45;;;;;;;5.68;30.77;101948.31;5092084;28;20405;-77
2022/01/23 12:49:33;;;;;;;12.60;10.25;;;;;;;5.43;31.23;101959.00;5091318;28;20943;-75
2022/01/23 12:52:24;;;;;;;21.08;14.55;;;;;;;5.40;31.61;101951.25;5089382;28;21216;-77
2022/01/23 12:54:57;;;;;;;10.88;9.25;;;;;;;5.47;31.52;101955.31;5071592;28;20445;-78
2022/01/23 12:57:35;;;;;;;8.65;7.25;;;;;;;5.37;31.72;101962.75;5089891;28;20409;-78
2022/01/23 13:00:06;;;;;;;13.75;10.63;;;;;;;5.52;31.64;101961.25;5087228;28;20405;-76
2022/01/23 13:02:41;;;;;;;13.70;10.13;;;;;;;5.17;32.18;101958.31;5088710;28;20932;-77
2022/01/23 13:05:09;;;;;;;16.70;14.40;;;;;;;5.34;32.00;101968.13;5088548;28;20987;-78
2022/01/23 13:07:42;;;;;;;13.90;12.30;;;;;;;5.20;32.20;101966.03;5083501;28;20463;-72
2022/01/23 13:10:27;;;;;;;10.67;8.47;;;;;;;5.06;32.54;101972.78;5088802;28;20471;-76
2022/01/23 13:13:06;;;;;;;13.13;9.07;;;;;;;5.05;32.36;101966.66;5071825;28;20429;-76
2022/01/23 13:16:01;;;;;;;16.88;12.45;;;;;;;5.12;32.57;101980.41;5089283;28;20867;-76
2022/01/23 13:32:25;;;;;;;17.77;12.85;;;;;;;4.72;33.64;101972.28;5086326;28;20428;-74
2022/01/23 13:34:57;;;;;;;13.25;9.40;;;;;;;4.49;33.60;101965.28;5087765;28;20413;-76
2022/01/23 13:37:26;;;;;;;16.90;10.53;;;;;;;4.40;33.96;101976.16;5088300;28;20466;-78
2022/01/23 13:39:58;;;;;;;16.75;11.38;;;;;;;4.57;33.74;101979.00;5088011;28;20490;-78
2022/01/23 13:48:40;;;;;;;17.13;11.90;;;;;;;4.37;34.26;101994.63;5087694;28;20452;-77
2022/01/23 13:51:23;;;;;;;18.23;12.68;;;;;;;4.27;34.36;101990.63;5087861;28;20413;-76
2022/01/23 13:59:40;;;;;;;16.88;11.75;;;;;;;4.04;35.05;102002.78;5087848;28;20432;-76
2022/01/23 14:02:17;;;;;;;16.85;12.30;;;;;;;3.87;35.18;101994.63;5088015;28;20438;-77
2022/01/23 14:04:46;;;;;;;15.20;12.13;;;;;;;3.98;35.16;102001.22;5089402;28;20778;-76
2022/01/23 14:07:19;;;;;;;15.33;10.97;;;;;;;3.85;35.23;101993.81;5089799;28;20414;-76
2022/01/23 14:09:47;;;;;;;20.67;14.10;;;;;;;3.80;35.41;102000.09;5088229;28;20417;-77
2022/01/23 14:12:17;;;;;;;22.60;14.43;;;;;;;3.58;35.79;101999.09;5090029;28;20421;-77
2022/01/23 14:14:55;;;;;;;28.98;19.05;;;;;;;3.54;35.97;101984.38;5089477;28;20409;-77
2022/01/23 14:17:24;;;;;;;23.10;15.50;;;;;;;3.62;36.05;102005.94;5090273;28;20416;-77
2022/01/23 14:20:04;;;;;;;21.13;16.92;;;;;;;3.65;35.95;102004.97;5089878;28;20410;-76
2022/01/23 14:22:33;;;;;;;18.50;13.30;;;;;;;3.60;36.31;102018.25;5088806;28;20432;-77
2022/01/23 14:25:08;;;;;;;21.50;14.77;;;;;;;3.50;36.54;102007.19;5088520;28;20500;-77
2022/01/23 14:27:35;;;;;;;25.75;16.85;;;;;;;3.58;36.21;101999.94;5089560;28;20409;-77
2022/01/23 14:30:07;;;;;;;20.20;15.45;;;;;;;3.40;36.71;102001.38;5089164;28;20496;-78
2022/01/23 14:32:42;;;;;;;21.67;15.47;;;;;;;3.58;36.32;101999.94;5090066;28;20899;-78
2022/01/23 14:35:12;;;;;;;31.10;21.53;;;;;;;3.51;36.61;101998.44;5072239;28;20433;-77
2022/01/23 14:37:40;;;;;;;30.40;20.80;;;;;;;3.45;36.77;101996.03;5047234;28;20424;-76
2022/01/23 14:40:17;;;;;;;27.38;19.90;;;;;;;3.45;37.10;102003.00;5046525;28;20417;-76
2022/01/23 14:43:05;;;;;;;37.55;27.05;;;;;;;3.45;37.23;101993.41;5047871;28;20419;-77
2022/01/23 14:45:36;;;;;;;33.58;22.38;;;;;;;3.35;37.31;101994.59;5050033;28;20451;-77